Quincy Regional Baldwin Field
KUIN : now visible

Airfield :











YOU CAN JOIN US ON...

 
LOGIN :

Register | Disclaimer

   EN    FR    IT 

 









Legend :    VFR   Marginal VFR   IFR   Intensive IFR   Very Intensive IFR
Visi :
Ceiling :
>= 8 km
>= 3000ft
5 to 8 km
1000 to 3000 ft
1500m to 5 km
500 to 1000 ft
800 to 1500m
200 to 500 ft
< 800m
< 200 ft
Symbols :   Thunderstorms  Fog  Heavy snow  Heavy precipitations  Wind > 20 kt







- Airport Elevation : 768 ft
- IATA code : UIN


KUIN - Quincy Regional Baldwin Field

CURRENT METAR :
  • 161254Z AUTO 33003KT 10SM CLR 21/18 A2981 RMK AO2 SLP089 T02060183 $

EXPIRED METARs :
  • 161154Z AUTO 00000KT 7SM CLR 19/18 A2980 RMK AO2 SLP085 60000 70075 T01940178 10200 20183 51025 $
  • 161054Z AUTO 00000KT 7SM CLR 19/18 A2979 RMK AO2 SLP083 T01890178 $

TAF KUIN
Valid from the 16 at 12:00 until the 17 at 12:00 UTC


161135Z 1612/1712 VRB04KT 6SM BR BKN250
FM161500 28007KT P6SM SCT050 BKN120
FM170000 32006KT P6SM BKN120
FM170700 02005KT P6SM BKN030
KZKC FIR / North America



MET'MAP, your aeronautical weather chart ! - Copyright ORBIFLY December 2007 - Disclaimer

ORBIFLY MET'MAP TEAM :

Programming & Development : Alexandra Zaïnal
Concept & Development : Baudouin d'Aumeries
Co-Development & Prog : Marc-Olivier Méhu
Technical & hardware support : Manuel Goepfert

Contact : metmap@orbifly.com




SOURCES & CREDITS :

   NOAA       Earth
Advisory